AirNav   Air Wisconsin pilot careers
 
 1041 users online  

K11 Sam Riggs Airpark
Claremore, Oklahoma, USA

GOING TO CLAREMORE?


FAA INFORMATION EFFECTIVE 21 JUNE 2018

Location

FAA Identifier: K11
Lat/Long: 36-13-05.4000N / 095-39-06.8000W
36-13.090000N / 095-39.113333W
36.2181667 / -95.6518889
(estimated)
Elevation: 580 ft. / 177 m (estimated)
Variation: 06E (1985)
From city: 7 miles S of CLAREMORE, OK
Time zone: UTC -5 (UTC -6 during Standard Time)
Zip code: 74017

Airport Operations

Airport use: Open to the public
Activation date: 03/1980
Control tower: no
ARTCC: KANSAS CITY CENTER
FSS: MC ALESTER FLIGHT SERVICE STATION
NOTAMs facility: MLC (NOTAM-D service available)
Attendance: UNATNDD
Wind indicator: no
Segmented circle: no

Airport Communications

CTAF: 122.9
WX AWOS-3 at GCM (9 nm NE): 119.925 (918-343-0184)
WX ASOS at TUL (11 nm W): PHONE 918-831-6772
WX ASOS at RVS (19 nm SW): PHONE 918-299-0740

Nearby radio navigation aids

VOR radial/distance  VOR name  Freq  Var
TULr071/6.7TULSA VORTAC114.4008E
GNPr035/23.5GLENPOOL VOR/DME110.6006E
OKMr010/33.2OKMULGEE VOR/DME114.9008E

 
NDB name  Hdg/Dist  Freq  Var  ID
OILLR055/13.633803ETU - ..-
WILLIAM POGUE078/24.536206EOWP --- .-- .--.
TAHLEQUAH294/35.821505ETQH - --.- ....

Airport Services

Airframe service: NONE
Powerplant service: NONE
Bottled oxygen: NONE
Bulk oxygen: NONE

Runway Information

Runway 4/22

Dimensions: 2760 x 35 ft. / 841 x 11 m
Surface: turf, in poor condition
RY COVERED IN TALL GRASS & WEEDS. SURFACE ROUGH.
Operational restrictions: RY CLSD INDEFLY.
RUNWAY 4  RUNWAY 22
Latitude: 36-12.931000N36-13.194000N
Longitude: 095-39.240333W095-38.782333W
Traffic pattern: rightleft
Obstructions: 40 ft. trees, 105 ft. from runway, 2:1 slope to clear20 ft. trees, 120 ft. from runway, 6:1 slope to clear

Runway 18/36

Dimensions: 1550 x 110 ft. / 472 x 34 m
Surface: turf/L
RWY COVERED IN TALL GRASS & WEEDS. SURFACE ROUGH. RWY UNIDENTIFIABLE.
Operational restrictions: RY ENDS UNIDENTIFIABLE.
RUNWAY 18  RUNWAY 36
Traffic pattern: leftleft
Obstructions: 40 ft. tree, 45 ft. right of centerline49 ft. trees, 400 ft. from runway, 8:1 slope to clear

Airport Ownership and Management from official FAA records

Ownership: Privately-owned
Owner: CRAT PROPERTIES
P. O. BOX 1782
CLAREMORE, OK 74018
Phone 918-381-8900
Manager: CHARLES POLK
10500 E. AIRPARK RD.
CLAREMORE, OK 74019
Phone 918-381-8900

Instrument Procedures

There are no published instrument procedures at K11.

Some nearby airports with instrument procedures:

KGCM - Claremore Regional Airport (9 nm NE)
KTUL - Tulsa International Airport (11 nm W)
H71 - Mid-America Industrial Airport (16 nm E)
KRVS - Richard Lloyd Jones Jr Airport (19 nm SW)
H68 - Hefner-Easley Airport (21 nm SE)
 
Loc | Ops | Rwys | IFR | FBO | Links
Com | Nav | Svcs | Stats | Notes

AirNav Hotels Sweepstakes
 
Area around K11 (Sam Riggs Airpark)
 
Road maps at: MapQuest Bing Google
 
Aerial photo
No photo
 
Sectional chart

 
Airport distance calculator
Flying to Sam Riggs Airpark? Find the distance to fly.

From to K11

Sunrise and sunset
Times for 23-Jun-2018
 Local
(UTC-5)
 Zulu
(UTC)
Morning civil twilight05:3710:37
Sunrise06:0711:07
Sunset20:4301:43
Evening civil twilight21:1302:13

Current date and time
Zulu (UTC)  23-Jun-2018 18:38:06
Local (UTC-5)  23-Jun-2018 13:38:06
 
METAR
KGCM 
10nm NE 
231815Z AUTO 27009KT 10SM CLR 27/18 A2985 RMK AO2
KTUL 
11nm W 
231753Z 28011KT 10SM FEW040 SCT100 SCT250 28/21 A2983 RMK AO2 SLP091 60000 T02830206 10283 20200 50000
KRVS 
19nm SW 
231753Z VRB05KT 10SM CLR 28/19 A2984 RMK AO2 SLP109 60000 T02780189 10278 20206 50018
TAF
KTUL 
11nm W 
231720Z 2318/2418 21010KT P6SM SCT025 BKN150 FM240000 17010KT P6SM SCT100 BKN250
KRVS 
19nm SW 
231720Z 2318/2418 21007KT P6SM SCT025 BKN100 FM240000 17010KT P6SM SCT100 BKN250
NOTAMs
Click for the latest NOTAMs
NOTAMs are issued by the DoD/FAA and will open in a separate window not controlled by AirNav.

 

 
 

Would you like to see your business listed on this page?

 If your business provides an interesting product or service to pilots, flight crews, aircraft, or users of the Sam Riggs Airpark, you should consider listing it here.  To start the listing process, click on the button below
 
Add a business
 

Other Pages about Sam Riggs Airpark

www.samriggs.com
 
Update a link
 
Copyright © AirNav, LLC. All rights reserved. Privacy Policy  Contact